Date,TemperatureHighF,TemperatureAvgF,TemperatureLowF,DewpointHighF,DewpointAvgF,DewpointLowF,HumidityHigh,HumidityAvg,HumidityLow,PressureMaxIn,PressureMinIn,WindSpeedMaxMPH,WindSpeedAvgMPH,GustSpeedMaxMPH,PrecipitationSumIn
2013-2-1,34.5,29.3,24.7,20.9,12.6,8.3,76,49,38,30.36,30.25,19,5,33,0.00
2013-2-2,44.0,31.9,22.9,9.0,4.1,-3.3,48,32,13,30.49,30.33,18,4,27,0.00
2013-2-3,47.6,32.0,20.7,4.8,-0.5,-10.1,44,26,9,30.44,30.19,14,3,24,0.00
2013-2-4,42.4,32.2,22.9,9.8,2.8,-1.7,39,29,15,30.24,30.14,17,4,40,0.00
2013-2-5,50.1,37.0,28.1,18.9,14.9,9.5,61,41,28,30.28,30.16,19,3,22,0.00
2013-2-6,44.2,32.2,21.6,26.7,17.5,11.1,90,58,27,30.29,30.13,14,3,19,0.00
2013-2-7,42.0,25.1,11.2,17.2,4.8,-11.1,82,45,10,30.33,30.25,10,3,16,0.00
2013-2-8,44.4,27.6,14.8,14.8,3.9,-4.2,64,38,17,30.25,30.01,14,3,20,0.00
2013-2-9,30.4,23.1,17.1,23.7,15.2,5.9,86,72,50,30.01,29.80,10,3,18,0.00
2013-2-10,25.0,18.0,12.1,13.9,7.6,0.2,84,64,34,30.15,29.83,12,3,17,0.00
2013-2-11,19.3,10.0,-2.2,12.2,4.0,-7.6,84,76,54,30.18,30.09,10,3,12,0.00
2013-2-12,31.5,15.5,0.4,3.8,-0.9,-7.5,81,52,24,30.23,30.17,12,3,16,0.00
2013-2-13,31.0,25.0,16.0,12.7,7.5,3.8,59,47,38,30.24,30.18,22,5,27,0.00
2013-2-14,30.4,21.1,13.5,14.7,9.6,6.5,86,62,37,30.35,30.19,18,4,23,0.00
2013-2-15,27.7,22.5,18.2,12.7,7.7,3.2,76,53,37,30.41,30.31,17,5,26,0.00
2013-2-16,39.9,31.8,25.6,11.2,8.0,0.5,50,36,22,30.40,30.24,21,6,31,0.00
2013-2-17,46.4,32.9,16.6,12.1,-0.0,-10.3,54,28,10,30.24,29.93,26,4,29,0.00
2013-2-18,25.2,18.9,7.0,12.0,1.1,-5.7,66,45,31,30.23,30.00,18,4,23,0.00
2013-2-19,38.6,22.2,7.0,7.2,-3.7,-20.5,55,35,7,30.22,30.01,11,3,16,0.00
2013-2-20,32.1,22.3,16.6,18.1,9.5,4.0,86,60,31,30.01,29.86,12,3,17,0.00
2013-2-21,20.7,15.7,9.5,12.9,10.4,4.6,88,79,61,30.04,29.87,10,4,15,0.00
2013-2-22,26.6,16.7,9.0,13.0,4.8,-2.1,82,60,35,30.09,30.02,13,4,20,0.00
2013-2-23,41.3,27.5,14.2,22.7,9.7,-2.4,85,48,29,30.06,29.88,16,4,24,0.00
2013-2-24,21.6,16.7,0.9,16.9,11.2,-4.1,87,78,63,30.22,29.93,13,3,19,0.00
2013-2-25,35.9,18.3,-2.3,9.8,1.4,-6.3,88,52,21,30.21,30.03,15,4,18,0.00
2013-2-26,25.4,19.9,13.9,16.4,10.0,3.9,81,65,40,30.25,29.99,9,3,17,0.00
2013-2-27,25.9,14.5,1.6,7.0,-1.5,-6.9,86,52,26,30.35,30.25,16,4,23,0.00
2013-2-28,29.3,19.6,5.4,11.9,3.6,-4.7,73,50,30,30.40,30.33,22,5,30,0.00